Time;durP1;ratioP1;P1;durP2;ratioP2;P2;SDS_P1;SDS_P2;PMS_P1;PMS_P2;Temp;Humidity;BMP_temperature;BMP_pressure;BME280_temperature;BME280_humidity;BME280_pressure;Samples;Min_cycle;Max_cycle;Signal;HPM_P1;HPM_P2
2021/03/15 00:00:31;;;;;;;5.85;5.30;;;;;;;3.68;42.80;100411.59;5004197;28;96817;-76
2021/03/15 00:02:59;;;;;;;6.68;5.00;;;;;;;3.66;42.78;100412.41;4972383;28;98136;-73
2021/03/15 00:05:28;;;;;;;6.15;5.55;;;;;;;3.63;43.14;100407.84;4973835;28;96889;-73
2021/03/15 00:07:56;;;;;;;5.93;5.43;;;;;;;3.66;43.18;100405.38;4991216;28;97180;-74
2021/03/15 00:10:23;;;;;;;6.05;5.57;;;;;;;3.68;42.84;100411.59;4972710;28;99658;-74
2021/03/15 00:12:50;;;;;;;6.35;5.70;;;;;;;3.70;42.46;100407.31;4977300;28;96827;-73
2021/03/15 00:15:18;;;;;;;10.23;5.20;;;;;;;3.67;43.11;100409.81;4973600;28;96857;-73
2021/03/15 00:17:45;;;;;;;5.93;5.35;;;;;;;3.61;42.77;100404.25;4977490;28;96792;-73
2021/03/15 00:20:15;;;;;;;6.38;5.85;;;;;;;3.59;43.00;100400.66;4974575;28;97228;-73
2021/03/15 00:22:44;;;;;;;6.25;5.75;;;;;;;3.59;42.82;100399.75;4958176;28;100618;-76
2021/03/15 00:25:12;;;;;;;8.73;5.97;;;;;;;3.57;43.37;100401.44;4971815;28;96878;-76
2021/03/15 00:27:39;;;;;;;6.07;5.63;;;;;;;3.55;42.90;100400.47;4970122;28;97076;-75
2021/03/15 00:30:08;;;;;;;6.60;5.90;;;;;;;3.52;43.32;100395.97;4972392;28;99734;-73
2021/03/15 00:32:35;;;;;;;6.50;5.55;;;;;;;3.52;42.87;100398.59;4972317;28;97685;-74
2021/03/15 00:35:21;;;;;;;6.05;5.55;;;;;;;3.51;43.27;100396.81;4975215;28;96926;-75
2021/03/15 00:37:49;;;;;;;6.40;5.85;;;;;;;3.48;43.50;100390.53;5008775;27;97346;-73
2021/03/15 00:40:18;;;;;;;5.80;5.30;;;;;;;3.48;43.53;100398.41;5006704;28;97785;-73
2021/03/15 00:42:46;;;;;;;6.70;6.20;;;;;;;3.46;43.56;100400.97;4972734;28;98503;-73
2021/03/15 00:45:14;;;;;;;6.80;6.20;;;;;;;3.47;42.87;100397.50;4987683;28;97652;-73
2021/03/15 00:47:41;;;;;;;6.70;5.85;;;;;;;3.48;43.51;100391.41;4973462;28;97057;-73
2021/03/15 00:50:15;;;;;;;5.90;5.25;;;;;;;3.48;43.12;100394.03;4974309;28;97871;-73
2021/03/15 00:52:42;;;;;;;6.22;5.70;;;;;;;3.44;43.01;100388.59;5012519;28;98603;-74
2021/03/15 00:55:10;;;;;;;5.88;5.43;;;;;;;3.42;43.15;100391.16;4978405;28;97235;-76
2021/03/15 00:57:37;;;;;;;7.40;6.60;;;;;;;3.39;43.62;100380.50;4968986;28;96775;-74
2021/03/15 01:00:07;;;;;;;6.57;5.95;;;;;;;3.40;43.32;100392.81;4956504;28;99040;-75
2021/03/15 01:02:54;;;;;;;7.05;5.60;;;;;;;3.37;43.52;100392.66;4992792;28;99579;-76
2021/03/15 01:05:23;;;;;;;6.63;6.03;;;;;;;3.39;43.15;100385.75;4993830;28;97379;-73
2021/03/15 01:07:51;;;;;;;10.15;5.80;;;;;;;3.35;43.47;100382.94;4956846;28;97623;-75
2021/03/15 01:10:23;;;;;;;6.85;6.03;;;;;;;3.34;42.80;100382.03;4953470;28;98570;-74
2021/03/15 01:12:51;;;;;;;6.55;5.93;;;;;;;3.36;43.31;100385.63;4974176;28;97277;-75
2021/03/15 01:15:19;;;;;;;7.53;6.07;;;;;;;3.31;43.58;100381.91;4989148;28;96920;-73
2021/03/15 01:17:51;;;;;;;6.63;6.10;;;;;;;3.28;43.19;100391.41;4957603;28;97854;-74
2021/03/15 01:20:20;;;;;;;6.85;5.60;;;;;;;3.26;43.14;100377.28;4970839;28;98750;-73
2021/03/15 01:22:47;;;;;;;6.78;6.20;;;;;;;3.26;43.10;100382.53;4973416;28;100012;-73
2021/03/15 01:25:14;;;;;;;7.07;6.40;;;;;;;3.24;42.86;100379.81;4973561;28;96785;-74
2021/03/15 01:27:42;;;;;;;7.25;6.25;;;;;;;3.20;43.07;100365.63;4974888;28;96938;-73
2021/03/15 01:30:12;;;;;;;9.45;6.85;;;;;;;3.16;43.36;100369.00;4988807;28;99094;-75
2021/03/15 01:32:39;;;;;;;8.23;6.20;;;;;;;3.17;42.99;100372.50;4970573;28;97069;-73
2021/03/15 01:35:08;;;;;;;8.45;6.78;;;;;;;3.16;43.28;100349.69;5006777;27;96809;-73
2021/03/15 01:37:35;;;;;;;9.23;6.50;;;;;;;3.12;43.36;100353.00;4975572;28;96917;-73
2021/03/15 01:40:03;;;;;;;8.73;7.20;;;;;;;3.12;42.88;100353.00;4972457;28;98458;-73
2021/03/15 01:42:30;;;;;;;6.70;6.20;;;;;;;3.11;43.46;100351.22;5005571;27;100826;-74
2021/03/15 01:44:57;;;;;;;8.35;7.53;;;;;;;3.11;43.41;100345.97;4971398;28;97138;-74
2021/03/15 01:47:25;;;;;;;9.73;6.75;;;;;;;3.05;43.03;100343.06;5006838;28;97539;-73
2021/03/15 01:49:52;;;;;;;10.35;7.10;;;;;;;3.03;42.93;100339.47;4974382;28;98516;-75
2021/03/15 01:52:20;;;;;;;6.82;6.22;;;;;;;2.99;42.92;100341.06;4989607;28;98114;-73
2021/03/15 01:54:47;;;;;;;11.05;7.47;;;;;;;2.98;43.40;100341.00;4973558;28;96969;-73
2021/03/15 01:57:14;;;;;;;7.68;6.68;;;;;;;2.95;43.76;100338.22;4968582;28;97058;-77
2021/03/15 01:59:41;;;;;;;8.55;7.78;;;;;;;2.93;43.49;100335.50;4986359;28;98787;-73
2021/03/15 02:02:09;;;;;;;8.23;7.43;;;;;;;2.92;43.17;100330.19;4954200;28;97295;-76
2021/03/15 02:04:54;;;;;;;10.43;6.55;;;;;;;2.91;43.34;100331.91;4986373;28;96839;-75
2021/03/15 02:07:27;;;;;;;8.43;7.45;;;;;;;2.96;43.28;100333.03;4973808;28;97334;-73
2021/03/15 02:09:54;;;;;;;11.73;7.18;;;;;;;2.96;43.25;100334.75;4969870;28;97860;-76
2021/03/15 02:12:29;;;;;;;10.75;6.85;;;;;;;2.98;43.36;100325.22;5005481;28;99465;-73
2021/03/15 02:15:05;;;;;;;9.43;7.43;;;;;;;2.95;43.71;100328.59;4971320;28;96791;-75
2021/03/15 02:17:38;;;;;;;7.82;7.03;;;;;;;2.95;42.86;100322.44;4958241;28;97496;-73
2021/03/15 02:20:35;;;;;;;7.25;6.63;;;;;;;2.97;43.89;100331.28;4970482;28;98521;-74
2021/03/15 02:23:05;;;;;;;10.68;7.45;;;;;;;2.98;43.40;100328.72;4972495;28;98915;-72
2021/03/15 02:26:11;;;;;;;10.20;7.28;;;;;;;2.99;43.33;100313.88;4988229;28;96967;-76
2021/03/15 02:28:53;;;;;;;9.02;7.47;;;;;;;2.98;43.66;100309.47;4972847;28;97193;-73
2021/03/15 02:31:35;;;;;;;8.60;7.70;;;;;;;2.96;43.21;100319.00;5007108;28;99259;-73
2021/03/15 02:34:46;;;;;;;8.63;7.22;;;;;;;3.00;43.07;100308.66;4977151;28;98687;-74
2021/03/15 02:37:16;;;;;;;8.15;7.32;;;;;;;3.01;43.33;100301.69;4976516;28;96778;-74
2021/03/15 02:39:46;;;;;;;7.72;6.97;;;;;;;3.02;42.85;100299.13;4978327;28;96850;-73
2021/03/15 02:42:15;;;;;;;8.70;7.10;;;;;;;3.03;42.58;100300.03;5010273;28;97508;-73
2021/03/15 02:44:44;;;;;;;10.52;6.88;;;;;;;3.01;42.82;100301.69;4976401;28;100749;-73
2021/03/15 02:47:13;;;;;;;10.93;7.60;;;;;;;3.00;42.79;100294.66;4974499;28;97025;-74
2021/03/15 02:49:42;;;;;;;8.52;7.07;;;;;;;3.00;43.31;100297.28;5010251;27;97173;-74
2021/03/15 02:52:11;;;;;;;8.27;6.97;;;;;;;3.00;43.12;100295.53;4975427;28;97884;-77
2021/03/15 02:54:39;;;;;;;7.05;6.43;;;;;;;3.01;43.17;100285.94;4972233;28;98432;-75
2021/03/15 02:57:07;;;;;;;7.05;6.43;;;;;;;3.02;42.51;100287.75;4977712;28;97435;-74
2021/03/15 02:59:34;;;;;;;12.80;7.10;;;;;;;3.02;42.84;100290.38;4969754;28;96954;-74
2021/03/15 03:02:20;;;;;;;8.63;6.72;;;;;;;3.02;42.83;100282.47;4966115;28;97133;-76
2021/03/15 03:04:48;;;;;;;7.45;6.70;;;;;;;3.11;42.36;100291.63;4970868;28;96791;-75
2021/03/15 03:07:17;;;;;;;7.72;6.50;;;;;;;3.13;42.73;100282.09;4951469;28;97401;-77
2021/03/15 03:09:45;;;;;;;9.93;6.32;;;;;;;3.17;42.25;100276.13;4974123;28;97279;-72
2021/03/15 03:12:14;;;;;;;7.40;6.72;;;;;;;3.20;42.79;100278.88;4975563;28;97864;-74
2021/03/15 03:14:41;;;;;;;9.80;6.63;;;;;;;3.24;42.39;100279.91;4990393;28;97193;-72
2021/03/15 03:17:09;;;;;;;8.40;7.13;;;;;;;3.28;42.86;100280.97;4975823;28;96902;-73
2021/03/15 03:19:37;;;;;;;9.00;6.18;;;;;;;3.29;42.76;100288.91;5008246;27;97278;-73
2021/03/15 03:22:04;;;;;;;6.55;5.80;;;;;;;3.32;42.59;100289.03;4977408;28;97688;-73
2021/03/15 03:24:33;;;;;;;7.47;6.43;;;;;;;3.38;42.16;100280.50;4960548;28;98851;-74
2021/03/15 03:27:00;;;;;;;8.25;5.93;;;;;;;3.42;42.61;100279.81;4975066;28;96871;-72
2021/03/15 03:29:28;;;;;;;6.60;5.90;;;;;;;3.43;42.32;100281.59;4975009;28;97486;-75
2021/03/15 03:31:55;;;;;;;10.50;6.13;;;;;;;3.38;42.08;100281.41;4970495;28;100562;-75
2021/03/15 03:34:22;;;;;;;6.47;5.93;;;;;;;3.39;41.96;100275.31;5008474;27;96993;-74
2021/03/15 03:36:49;;;;;;;8.85;6.43;;;;;;;3.37;42.46;100269.06;4992054;28;96884;-73
2021/03/15 03:39:16;;;;;;;6.28;5.72;;;;;;;3.35;42.36;100262.84;4972064;28;97588;-73
2021/03/15 03:41:44;;;;;;;6.50;5.90;;;;;;;3.31;42.69;100266.22;4973994;28;99035;-73
2021/03/15 03:44:12;;;;;;;5.70;5.10;;;;;;;3.30;41.93;100260.88;4973306;28;100419;-72
2021/03/15 03:46:41;;;;;;;6.68;5.97;;;;;;;3.25;42.43;100258.06;5008529;27;96891;-73
2021/03/15 03:49:09;;;;;;;6.10;5.55;;;;;;;3.18;42.61;100258.66;4974241;28;96520;-74
2021/03/15 03:51:41;;;;;;;5.60;5.13;;;;;;;3.17;42.37;100257.72;4976554;28;97020;-73
2021/03/15 03:54:11;;;;;;;9.60;6.20;;;;;;;3.12;42.58;100256.66;4991337;28;96751;-74
2021/03/15 03:56:46;;;;;;;6.60;5.60;;;;;;;3.09;42.75;100253.00;4958212;28;96828;-74
2021/03/15 03:59:15;;;;;;;10.60;5.88;;;;;;;3.06;42.29;100263.34;4959006;28;96903;-73
2021/03/15 04:01:45;;;;;;;5.85;5.30;;;;;;;3.04;42.80;100254.50;4972445;28;97449;-73
2021/03/15 04:04:17;;;;;;;7.25;6.57;;;;;;;3.01;42.49;100260.56;4974190;28;97611;-73
2021/03/15 04:06:44;;;;;;;7.10;6.40;;;;;;;3.01;42.63;100262.28;4973727;28;97538;-73
2021/03/15 04:09:13;;;;;;;9.57;6.85;;;;;;;2.95;43.03;100260.28;4970849;28;96902;-73
2021/03/15 04:11:43;;;;;;;8.65;6.35;;;;;;;2.95;42.48;100259.38;4974566;28;98217;-73
2021/03/15 04:14:13;;;;;;;9.40;5.50;;;;;;;2.95;42.52;100265.53;4975589;28;97297;-73
2021/03/15 04:16:41;;;;;;;9.50;6.05;;;;;;;2.94;42.82;100262.84;4978085;28;96746;-74
2021/03/15 04:19:10;;;;;;;9.20;6.22;;;;;;;2.96;42.30;100261.19;4971662;28;97014;-74
2021/03/15 04:21:38;;;;;;;7.25;6.18;;;;;;;3.00;42.34;100263.13;4989059;28;98495;-74
2021/03/15 04:24:08;;;;;;;7.28;5.72;;;;;;;3.01;42.71;100262.28;4973261;28;98176;-74
2021/03/15 04:26:35;;;;;;;6.40;5.80;;;;;;;2.99;42.53;100256.06;4977398;28;97350;-72
2021/03/15 04:29:03;;;;;;;6.50;5.90;;;;;;;3.03;42.32;100257.97;4973473;28;96686;-74
2021/03/15 04:31:31;;;;;;;9.07;5.75;;;;;;;3.05;42.70;100261.56;4953862;28;99065;-72
2021/03/15 04:33:59;;;;;;;6.28;5.68;;;;;;;3.10;42.49;100260.03;4974537;28;97792;-74
2021/03/15 04:36:27;;;;;;;6.10;5.55;;;;;;;3.11;41.97;100252.22;5005036;27;96802;-74
2021/03/15 04:38:54;;;;;;;8.02;5.50;;;;;;;3.15;42.25;100247.97;4971928;28;97491;-73
2021/03/15 04:41:21;;;;;;;9.77;5.60;;;;;;;3.16;42.23;100245.44;4968850;28;98711;-74
2021/03/15 04:43:48;;;;;;;9.25;5.55;;;;;;;3.16;42.66;100244.53;4971771;28;96898;-73
2021/03/15 04:46:17;;;;;;;5.93;5.25;;;;;;;3.17;42.80;100247.22;4975376;28;96902;-74
2021/03/15 04:48:46;;;;;;;6.45;5.65;;;;;;;3.17;42.19;100248.94;4959625;28;96913;-74
2021/03/15 04:51:16;;;;;;;5.68;5.13;;;;;;;3.15;42.23;100245.34;4983896;28;96918;-73
2021/03/15 04:53:43;;;;;;;6.95;5.88;;;;;;;3.13;42.81;100254.94;4957257;28;97835;-72
2021/03/15 04:56:13;;;;;;;5.88;5.40;;;;;;;3.12;42.19;100258.38;4974527;28;97222;-74
2021/03/15 04:58:44;;;;;;;5.63;5.20;;;;;;;3.17;42.18;100248.94;4965295;28;97324;-73
2021/03/15 05:01:12;;;;;;;5.60;5.10;;;;;;;3.13;42.54;100258.44;4966257;28;97388;-73
2021/03/15 05:03:41;;;;;;;5.72;5.32;;;;;;;3.15;42.60;100255.88;4944569;28;99143;-73
2021/03/15 05:06:09;;;;;;;5.82;5.32;;;;;;;3.14;42.70;100256.72;4984698;28;97779;-73
2021/03/15 05:08:41;;;;;;;6.05;5.55;;;;;;;3.15;42.08;100261.13;5002273;28;96822;-74
2021/03/15 05:11:09;;;;;;;6.47;5.20;;;;;;;3.13;42.77;100260.19;4970909;28;99282;-73
2021/03/15 05:13:38;;;;;;;6.22;5.40;;;;;;;3.17;42.35;100259.47;4969765;28;99620;-73
2021/03/15 05:16:06;;;;;;;6.15;5.70;;;;;;;3.20;42.05;100260.47;4973212;28;96849;-73
2021/03/15 05:18:33;;;;;;;5.72;5.10;;;;;;;3.22;42.85;100257.94;4975546;28;97265;-74
2021/03/15 05:21:01;;;;;;;5.50;5.10;;;;;;;3.20;42.53;100249.97;4986544;28;97579;-74
2021/03/15 05:23:30;;;;;;;5.82;5.32;;;;;;;3.20;42.35;100263.09;4963210;28;97086;-74
2021/03/15 05:25:57;;;;;;;5.72;5.18;;;;;;;3.18;42.74;100259.50;4964700;28;96893;-73
2021/03/15 05:28:25;;;;;;;5.28;4.95;;;;;;;3.22;42.21;100252.69;4953418;28;96797;-73
2021/03/15 05:30:52;;;;;;;5.53;4.72;;;;;;;3.21;42.47;100258.75;4984182;28;97329;-73
2021/03/15 05:33:21;;;;;;;4.53;4.32;;;;;;;3.16;42.52;100257.69;4955040;28;100620;-73
2021/03/15 05:36:08;;;;;;;4.82;4.43;;;;;;;3.13;42.80;100262.81;4972781;28;96840;-73
2021/03/15 05:38:36;;;;;;;4.90;4.60;;;;;;;3.09;42.64;100263.50;4970752;28;97371;-74
2021/03/15 05:41:03;;;;;;;5.70;4.30;;;;;;;3.05;42.23;100246.72;4969829;28;98362;-73
2021/03/15 05:43:49;;;;;;;4.63;4.22;;;;;;;2.99;42.35;100248.16;4984807;28;98064;-74
2021/03/15 05:46:32;;;;;;;4.63;4.25;;;;;;;2.95;42.75;100248.84;4972221;28;97199;-73
2021/03/15 05:49:20;;;;;;;5.03;4.53;;;;;;;2.91;43.02;100250.47;5000498;27;96839;-74
2021/03/15 05:52:03;;;;;;;3.55;3.35;;;;;;;2.90;42.87;100247.78;4954786;28;100968;-73
2021/03/15 05:55:04;;;;;;;4.22;4.03;;;;;;;2.85;43.78;100246.69;4999901;28;97297;-73
2021/03/15 05:57:47;;;;;;;3.50;3.40;;;;;;;2.86;42.90;100237.97;5007929;27;96833;-73
2021/03/15 06:00:24;;;;;;;4.35;3.95;;;;;;;2.87;43.08;100245.94;4970259;28;96908;-72
2021/03/15 06:03:13;;;;;;;4.53;4.22;;;;;;;2.83;43.33;100237.84;4970824;28;97582;-73
2021/03/15 06:05:43;;;;;;;4.15;3.85;;;;;;;2.82;42.85;100236.94;4968336;28;100009;-72
2021/03/15 06:08:16;;;;;;;3.47;3.38;;;;;;;2.84;42.70;100245.78;4954815;28;96896;-72
2021/03/15 06:10:52;;;;;;;3.75;3.65;;;;;;;2.85;43.12;100239.72;4970248;28;96907;-72
2021/03/15 06:13:19;;;;;;;3.67;3.58;;;;;;;2.84;42.88;100237.00;4982981;28;98518;-73
2021/03/15 06:15:47;;;;;;;4.00;3.90;;;;;;;2.87;43.09;100242.41;4981954;28;99620;-73
2021/03/15 06:18:16;;;;;;;3.97;3.80;;;;;;;2.91;42.37;100232.06;4970674;28;96818;-73
2021/03/15 06:20:44;;;;;;;4.15;4.03;;;;;;;2.95;42.73;100235.72;4967713;28;96980;-72
2021/03/15 06:23:15;;;;;;;3.92;3.72;;;;;;;2.96;43.05;100235.81;4967745;28;96962;-73
2021/03/15 06:25:47;;;;;;;3.70;3.40;;;;;;;2.98;42.78;100241.13;4969651;28;97326;-73
2021/03/15 06:28:14;;;;;;;3.80;3.70;;;;;;;2.95;42.50;100240.97;4967775;28;97277;-73
2021/03/15 06:30:41;;;;;;;3.90;3.80;;;;;;;2.91;43.31;100239.06;4985124;28;97065;-73
2021/03/15 06:33:09;;;;;;;4.70;4.50;;;;;;;2.93;43.10;100232.16;4969818;28;98501;-73
2021/03/15 06:35:42;;;;;;;4.43;4.22;;;;;;;2.99;43.08;100235.03;4969374;28;98349;-73
2021/03/15 06:38:09;;;;;;;4.70;4.40;;;;;;;3.01;42.73;100233.38;5000933;28;97003;-73
2021/03/15 06:40:57;;;;;;;4.38;4.18;;;;;;;3.09;42.28;100230.22;5004562;28;97679;-74
2021/03/15 06:43:25;;;;;;;4.25;4.05;;;;;;;3.16;42.23;100234.03;4960406;28;97798;-73
2021/03/15 06:45:53;;;;;;;4.03;3.83;;;;;;;3.17;42.61;100230.53;5000329;28;100908;-73
2021/03/15 06:48:20;;;;;;;4.30;4.10;;;;;;;3.18;43.00;100232.34;4965908;28;97376;-73
2021/03/15 06:50:48;;;;;;;4.80;4.60;;;;;;;3.19;42.53;100234.13;4950399;28;97392;-73
2021/03/15 06:53:16;;;;;;;4.97;4.68;;;;;;;3.16;42.64;100241.91;4966858;28;97765;-73
2021/03/15 06:55:48;;;;;;;4.43;4.22;;;;;;;3.10;42.83;100250.44;4969221;28;97378;-73
2021/03/15 06:58:25;;;;;;;4.95;4.75;;;;;;;3.05;43.21;100246.72;4984531;28;96913;-73
2021/03/15 07:01:13;;;;;;;4.82;4.63;;;;;;;3.05;43.88;100245.81;4959165;28;97883;-73
2021/03/15 07:03:41;;;;;;;4.45;4.22;;;;;;;3.01;42.97;100236.91;4951340;28;99398;-73
2021/03/15 07:06:09;;;;;;;5.45;5.15;;;;;;;3.05;43.07;100245.81;4966706;28;101573;-73
2021/03/15 07:08:36;;;;;;;5.55;5.25;;;;;;;3.05;42.94;100257.22;4999429;28;96991;-74
2021/03/15 07:11:23;;;;;;;5.45;5.05;;;;;;;3.05;43.03;100251.06;4967131;28;96995;-73
2021/03/15 07:13:51;;;;;;;5.00;4.70;;;;;;;3.07;42.94;100246.78;5000972;28;98786;-73
2021/03/15 07:16:28;;;;;;;4.82;4.53;;;;;;;3.07;42.99;100252.03;4966550;28;99094;-73
2021/03/15 07:18:56;;;;;;;5.35;5.00;;;;;;;3.03;43.32;100268.50;4965571;28;97482;-74
2021/03/15 07:21:36;;;;;;;5.35;4.95;;;;;;;3.06;43.44;100250.22;5002154;28;97292;-72
2021/03/15 07:24:08;;;;;;;5.53;5.00;;;;;;;3.09;43.63;100253.88;4945236;28;99686;-73
2021/03/15 07:26:39;;;;;;;5.57;5.07;;;;;;;3.09;43.41;100253.88;4966969;28;97403;-72
2021/03/15 07:29:11;;;;;;;5.30;5.00;;;;;;;3.11;42.87;100267.97;4970913;28;96988;-75
2021/03/15 07:31:38;;;;;;;5.82;5.43;;;;;;;3.13;42.97;100268.06;4974791;28;97542;-73
2021/03/15 07:34:17;;;;;;;5.63;5.22;;;;;;;3.19;42.99;100253.44;4980245;28;96856;-73
2021/03/15 07:36:53;;;;;;;5.97;5.57;;;;;;;3.21;43.33;100259.66;4982245;28;98421;-73
2021/03/15 07:39:21;;;;;;;5.57;5.10;;;;;;;3.27;42.84;100259.03;4967466;28;96888;-73
2021/03/15 07:41:50;;;;;;;6.47;5.93;;;;;;;3.25;42.95;100260.69;4995905;28;96805;-71
2021/03/15 07:44:20;;;;;;;6.13;5.72;;;;;;;3.32;42.82;100262.75;4985106;28;100438;-75
2021/03/15 07:46:48;;;;;;;7.43;6.82;;;;;;;3.35;42.87;100268.13;4968242;28;97315;-73
2021/03/15 07:49:24;;;;;;;5.88;5.47;;;;;;;3.36;43.30;100264.66;4969958;28;97219;-72
2021/03/15 07:52:10;;;;;;;7.07;6.47;;;;;;;3.38;42.65;100260.38;4983234;28;98455;-72
2021/03/15 07:54:38;;;;;;;8.02;7.43;;;;;;;3.41;42.88;100271.00;4969508;28;97344;-73
2021/03/15 07:57:27;;;;;;;8.02;7.22;;;;;;;3.35;43.88;100269.88;4973614;28;99240;-73
2021/03/15 07:59:56;;;;;;;8.95;6.47;;;;;;;3.33;43.11;100269.78;4975180;28;97092;-72
2021/03/15 08:02:26;;;;;;;7.72;7.07;;;;;;;3.36;43.23;100267.28;4963326;28;96898;-72
2021/03/15 08:04:54;;;;;;;7.32;6.80;;;;;;;3.37;43.16;100269.06;5004955;28;99991;-73
2021/03/15 08:07:22;;;;;;;7.82;7.22;;;;;;;3.43;43.10;100271.97;4971200;28;97919;-73
2021/03/15 08:09:51;;;;;;;6.97;6.43;;;;;;;3.48;43.21;100265.16;4988406;28;98237;-73
2021/03/15 08:12:19;;;;;;;7.18;6.72;;;;;;;3.52;43.03;100267.09;4998724;28;97233;-73
2021/03/15 08:14:48;;;;;;;9.30;8.35;;;;;;;3.56;42.57;100268.09;4965405;28;99600;-73
2021/03/15 08:17:20;;;;;;;7.70;7.10;;;;;;;3.65;42.78;100266.78;4969210;28;96831;-73
2021/03/15 08:19:48;;;;;;;7.20;6.63;;;;;;;3.73;42.63;100273.25;4989485;28;97036;-74
2021/03/15 08:22:22;;;;;;;6.95;6.32;;;;;;;3.76;43.25;100283.91;4998265;27;97745;-72
2021/03/15 08:24:52;;;;;;;8.25;7.60;;;;;;;3.78;42.67;100270.81;4987142;28;98884;-72
2021/03/15 08:27:20;;;;;;;7.13;6.60;;;;;;;3.78;42.97;100269.09;4968362;28;98903;-73
2021/03/15 08:29:47;;;;;;;7.13;6.53;;;;;;;3.78;42.99;100269.09;4972976;28;96856;-73
2021/03/15 08:32:15;;;;;;;7.45;6.85;;;;;;;3.84;42.97;100277.19;4969530;28;98231;-73
2021/03/15 08:34:43;;;;;;;7.47;6.50;;;;;;;3.85;42.94;100273.75;4963932;28;99061;-73
2021/03/15 08:37:10;;;;;;;7.07;6.40;;;;;;;3.88;42.82;100281.75;4964338;28;99532;-73
2021/03/15 08:39:40;;;;;;;7.05;6.45;;;;;;;3.88;42.41;100263.34;4957619;28;97047;-73
2021/03/15 08:42:28;;;;;;;6.93;6.38;;;;;;;3.94;42.59;100267.94;4986003;28;99281;-73
2021/03/15 08:45:27;;;;;;;8.10;7.35;;;;;;;3.99;43.26;100271.63;4967388;28;98068;-74
2021/03/15 08:48:00;;;;;;;7.65;7.05;;;;;;;3.97;42.57;100263.69;5001706;28;99520;-74
2021/03/15 08:50:59;;;;;;;8.65;7.80;;;;;;;3.92;44.00;100270.50;4952006;28;97004;-73
2021/03/15 08:53:51;;;;;;;9.50;7.90;;;;;;;3.87;43.30;100265.91;4970426;28;97865;-72
2021/03/15 08:56:35;;;;;;;8.27;7.47;;;;;;;3.89;43.32;100269.50;4999818;28;100094;-73
2021/03/15 08:59:04;;;;;;;9.13;8.27;;;;;;;3.86;42.71;100270.25;5001024;28;97909;-73
2021/03/15 09:01:56;;;;;;;9.27;8.57;;;;;;;3.86;43.39;100262.38;4963871;28;96887;-72
2021/03/15 09:04:39;;;;;;;10.57;9.18;;;;;;;3.89;43.03;100285.28;4982100;28;97559;-72
2021/03/15 09:07:34;;;;;;;9.35;8.55;;;;;;;3.94;42.91;100274.13;4999326;27;96802;-74
2021/03/15 09:10:44;;;;;;;10.40;9.40;;;;;;;3.92;42.93;100265.25;4964861;28;96899;-73
2021/03/15 09:13:24;;;;;;;11.13;10.13;;;;;;;3.86;42.36;100270.25;4964944;28;98202;-74
2021/03/15 09:15:56;;;;;;;11.40;9.90;;;;;;;3.86;42.55;100275.53;4967084;28;98095;-72
2021/03/15 09:18:44;;;;;;;11.25;9.80;;;;;;;3.81;43.68;100279.72;4960365;28;98732;-72
2021/03/15 09:21:53;;;;;;;10.75;9.65;;;;;;;3.82;43.16;100278.91;4969194;28;98858;-72
2021/03/15 09:24:36;;;;;;;10.45;9.50;;;;;;;3.85;43.39;100280.72;4942773;28;97410;-73
2021/03/15 09:27:04;;;;;;;10.77;9.73;;;;;;;3.93;42.70;100274.94;4963944;28;97053;-73
2021/03/15 09:29:31;;;;;;;10.40;9.38;;;;;;;3.97;42.76;100279.47;4980692;28;97108;-74
2021/03/15 09:31:59;;;;;;;10.52;9.43;;;;;;;4.04;42.64;100280.66;5001300;28;100984;-71
2021/03/15 09:34:27;;;;;;;10.82;9.70;;;;;;;4.11;42.47;100278.31;4965712;28;97126;-70
2021/03/15 09:36:58;;;;;;;10.88;9.00;;;;;;;4.11;42.22;100267.78;4966313;28;96983;-75
2021/03/15 09:39:27;;;;;;;9.82;8.82;;;;;;;4.15;42.03;100274.94;4971493;28;97074;-71
2021/03/15 09:41:58;;;;;;;10.07;9.07;;;;;;;4.28;42.09;100271.03;4971328;28;97702;-75
2021/03/15 09:44:27;;;;;;;9.68;8.70;;;;;;;4.33;42.29;100273.84;4999854;27;96847;-73
2021/03/15 09:46:57;;;;;;;10.00;9.02;;;;;;;4.40;41.85;100262.69;4986758;28;97462;-71
2021/03/15 09:49:38;;;;;;;10.55;9.38;;;;;;;4.39;42.46;100268.81;4970813;28;97708;-73
2021/03/15 09:52:21;;;;;;;10.52;9.10;;;;;;;4.47;41.84;100273.53;4983856;28;96956;-71
2021/03/15 09:55:06;;;;;;;9.90;7.57;;;;;;;4.50;41.62;100281.53;4987826;28;97788;-73
2021/03/15 09:57:35;;;;;;;8.80;8.10;;;;;;;4.57;41.64;100269.50;4966637;28;96793;-73
2021/03/15 10:00:11;;;;;;;9.10;8.32;;;;;;;4.68;41.38;100265.53;4987125;28;98262;-73
2021/03/15 10:02:42;;;;;;;8.48;7.55;;;;;;;4.77;41.37;100266.72;5003188;28;98803;-72
2021/03/15 10:05:28;;;;;;;8.65;7.85;;;;;;;4.82;41.42;100262.53;4971271;28;96940;-75
2021/03/15 10:08:15;;;;;;;8.20;7.40;;;;;;;4.89;41.19;100263.66;4968462;28;96803;-72
2021/03/15 10:11:01;;;;;;;8.30;7.50;;;;;;;4.98;41.18;100256.97;4968573;28;99638;-72
2021/03/15 10:14:08;;;;;;;8.40;7.35;;;;;;;5.07;41.03;100254.69;4925937;28;97047;-73
2021/03/15 10:17:03;;;;;;;8.77;7.85;;;;;;;5.12;40.98;100254.81;4887105;28;97482;-72
2021/03/15 10:19:41;;;;;;;8.32;7.50;;;;;;;5.17;40.84;100261.19;4948535;28;96821;-72
2021/03/15 10:22:10;;;;;;;7.72;6.93;;;;;;;5.15;40.82;100257.59;4986267;28;99231;-73
2021/03/15 10:24:39;;;;;;;7.75;6.75;;;;;;;5.25;40.78;100258.81;4948854;28;100288;-74
2021/03/15 10:27:14;;;;;;;7.25;6.55;;;;;;;5.32;40.67;100274.00;4986089;28;97308;-73
2021/03/15 10:29:42;;;;;;;5.80;5.40;;;;;;;5.31;40.53;100267.81;4968213;28;97274;-72
2021/03/15 10:32:09;;;;;;;7.20;5.93;;;;;;;5.36;40.40;100270.63;4999918;28;99660;-73
2021/03/15 10:34:37;;;;;;;5.78;5.30;;;;;;;5.34;40.57;100264.38;4951883;28;98992;-72
2021/03/15 10:37:13;;;;;;;6.80;5.50;;;;;;;5.35;40.75;100266.16;4952978;28;97291;-74
2021/03/15 10:40:11;;;;;;;6.88;5.50;;;;;;;5.35;40.44;100267.06;4964171;28;97349;-72
2021/03/15 10:42:40;;;;;;;6.75;6.15;;;;;;;5.37;40.69;100256.56;5001069;28;98474;-72
2021/03/15 10:45:10;;;;;;;10.02;5.72;;;;;;;5.35;40.51;100256.53;4951364;28;99294;-73
2021/03/15 10:47:40;;;;;;;6.53;5.82;;;;;;;5.36;40.42;100247.75;4983109;28;97225;-73
2021/03/15 10:50:27;;;;;;;7.85;5.57;;;;;;;5.40;40.21;100249.66;5002249;28;96918;-74
2021/03/15 10:53:29;;;;;;;6.55;5.95;;;;;;;5.47;40.32;100250.72;4956401;28;100435;-74
2021/03/15 10:56:01;;;;;;;6.85;5.60;;;;;;;5.56;40.49;100238.75;4951469;28;98691;-74
2021/03/15 10:58:42;;;;;;;5.20;4.70;;;;;;;5.70;40.06;100233.94;4998504;27;96979;-73
2021/03/15 11:01:24;;;;;;;5.38;4.88;;;;;;;5.86;39.93;100236.19;4961051;28;97036;-74
2021/03/15 11:04:09;;;;;;;6.00;5.40;;;;;;;5.96;39.35;100231.25;4948620;28;97642;-72
2021/03/15 11:06:43;;;;;;;7.18;6.03;;;;;;;6.05;39.38;100242.09;4999647;28;97242;-74
2021/03/15 11:09:17;;;;;;;6.93;6.22;;;;;;;6.10;39.43;100232.53;4997131;28;96759;-72
2021/03/15 11:11:54;;;;;;;6.28;5.57;;;;;;;6.06;39.39;100241.25;4980633;28;97423;-75
2021/03/15 11:14:34;;;;;;;6.70;6.10;;;;;;;6.08;39.60;100247.47;4970018;28;97919;-73
2021/03/15 11:17:23;;;;;;;6.80;5.90;;;;;;;6.18;39.39;100230.13;4949969;28;98550;-74
2021/03/15 11:20:01;;;;;;;6.68;6.07;;;;;;;6.11;39.53;100233.44;4999265;27;97185;-74
2021/03/15 11:22:47;;;;;;;7.97;6.97;;;;;;;6.10;39.71;100235.19;4997937;28;96931;-75
2021/03/15 11:25:15;;;;;;;11.18;7.45;;;;;;;6.09;39.66;100233.41;5000596;28;99801;-74
2021/03/15 11:27:55;;;;;;;8.23;7.43;;;;;;;6.13;39.52;100224.72;4952070;28;100108;-75
2021/03/15 11:30:25;;;;;;;10.60;8.27;;;;;;;6.23;39.75;100213.56;4986771;28;96854;-75
2021/03/15 11:33:08;;;;;;;11.90;8.27;;;;;;;6.30;39.42;100214.69;4970138;28;97359;-73
2021/03/15 11:36:00;;;;;;;9.38;8.40;;;;;;;6.45;39.26;100214.25;4969106;28;98557;-75
2021/03/15 11:38:37;;;;;;;8.52;7.75;;;;;;;6.52;39.39;100232.06;4972048;28;97208;-75
2021/03/15 11:41:17;;;;;;;7.30;6.70;;;;;;;6.50;39.22;100217.91;4973384;28;97463;-75
2021/03/15 11:43:44;;;;;;;6.70;6.20;;;;;;;6.45;39.22;100215.13;4987431;28;96826;-74
2021/03/15 11:46:11;;;;;;;9.48;6.63;;;;;;;6.38;39.59;100214.94;4987881;28;98966;-73
2021/03/15 11:48:40;;;;;;;10.23;6.88;;;;;;;6.37;39.50;100215.75;4957518;28;96836;-71
2021/03/15 11:51:21;;;;;;;6.18;5.15;;;;;;;6.38;39.54;100214.94;4953956;28;96760;-72
2021/03/15 11:54:08;;;;;;;5.80;5.05;;;;;;;6.34;39.34;100228.91;4973658;28;96841;-73
2021/03/15 11:56:35;;;;;;;8.77;6.40;;;;;;;6.30;39.67;100213.78;4973369;28;99990;-73
2021/03/15 11:59:03;;;;;;;5.57;5.03;;;;;;;6.30;39.66;100200.59;4954860;28;98838;-73